createdAt,value
2017-12-30T00:00:16.158Z,953.93
2017-12-30T00:01:16.094Z,953.95
2017-12-30T00:02:16.030Z,954.00
2017-12-30T00:03:15.965Z,954.06
2017-12-30T00:04:15.901Z,954.08
2017-12-30T00:05:15.837Z,954.07
2017-12-30T00:06:15.772Z,954.12
2017-12-30T00:07:15.711Z,954.04
2017-12-30T00:08:15.652Z,954.10
2017-12-30T00:09:15.588Z,954.08
2017-12-30T00:10:15.516Z,954.12
2017-12-30T00:11:15.452Z,954.06
2017-12-30T00:12:15.393Z,954.06
2017-12-30T00:13:15.325Z,954.00
2017-12-30T00:14:15.260Z,954.01
2017-12-30T00:15:15.196Z,954.06
2017-12-30T00:16:15.131Z,954.04
2017-12-30T00:17:15.069Z,954.05
2017-12-30T00:18:15.004Z,954.05
2017-12-30T00:19:14.941Z,954.04
2017-12-30T00:20:14.876Z,954.06
2017-12-30T00:21:14.812Z,954.06
2017-12-30T00:22:14.749Z,954.06
2017-12-30T00:23:14.686Z,954.05
2017-12-30T00:24:14.622Z,954.09
2017-12-30T00:25:14.559Z,954.09
2017-12-30T00:26:14.493Z,954.13
2017-12-30T00:27:14.428Z,954.12
2017-12-30T00:28:14.365Z,954.09
2017-12-30T00:29:14.303Z,954.11
2017-12-30T00:30:14.234Z,954.10
2017-12-30T00:31:14.171Z,954.12
2017-12-30T00:32:14.107Z,954.15
2017-12-30T00:33:14.044Z,954.12
2017-12-30T00:34:13.981Z,954.14
2017-12-30T00:35:13.915Z,954.12
2017-12-30T00:36:13.851Z,954.18
2017-12-30T00:37:13.786Z,954.20
2017-12-30T00:38:13.724Z,954.23
2017-12-30T00:39:13.657Z,954.20
2017-12-30T00:40:13.596Z,954.21
2017-12-30T00:41:13.532Z,954.24
2017-12-30T00:42:13.465Z,954.30
2017-12-30T00:43:13.429Z,954.27
2017-12-30T00:44:13.343Z,954.30
2017-12-30T00:45:13.272Z,954.34
2017-12-30T00:46:13.210Z,954.26
2017-12-30T00:47:13.148Z,954.28
2017-12-30T00:48:13.083Z,954.29
2017-12-30T00:49:13.018Z,954.30
2017-12-30T00:50:12.952Z,954.31
2017-12-30T00:51:12.884Z,954.28
2017-12-30T00:52:12.823Z,954.31
2017-12-30T00:53:12.762Z,954.40
2017-12-30T00:54:12.698Z,954.36
2017-12-30T00:55:12.632Z,954.37
2017-12-30T00:56:12.567Z,954.38
2017-12-30T00:57:12.504Z,954.35
2017-12-30T00:58:12.442Z,954.36
2017-12-30T00:59:12.377Z,954.35
2017-12-30T01:00:12.313Z,954.40
2017-12-30T01:01:12.247Z,954.35
2017-12-30T01:02:12.183Z,954.36
2017-12-30T01:03:12.118Z,954.37
2017-12-30T01:04:12.059Z,954.33
2017-12-30T01:05:11.992Z,954.37
2017-12-30T01:06:11.926Z,954.39
2017-12-30T01:07:11.866Z,954.37
2017-12-30T01:08:11.805Z,954.41
2017-12-30T01:09:11.733Z,954.40
2017-12-30T01:10:11.694Z,954.41
2017-12-30T01:11:11.605Z,954.40
2017-12-30T01:12:11.542Z,954.39
2017-12-30T01:13:11.476Z,954.42
2017-12-30T01:14:11.414Z,954.42
2017-12-30T01:15:11.348Z,954.41
2017-12-30T01:16:11.291Z,954.39
2017-12-30T01:17:11.219Z,954.35
2017-12-30T01:18:11.156Z,954.37
2017-12-30T01:19:11.090Z,954.38
2017-12-30T01:20:11.029Z,954.36
2017-12-30T01:21:10.966Z,954.37
2017-12-30T01:22:10.899Z,954.35
2017-12-30T01:23:10.836Z,954.43
2017-12-30T01:24:10.771Z,954.41
2017-12-30T01:25:10.708Z,954.42
2017-12-30T01:26:10.644Z,954.36
2017-12-30T01:27:10.578Z,954.33
2017-12-30T01:28:10.515Z,954.38
2017-12-30T01:29:10.452Z,954.38
2017-12-30T01:30:10.384Z,954.39
2017-12-30T01:31:10.326Z,954.38
2017-12-30T01:32:10.257Z,954.41
2017-12-30T01:33:10.192Z,954.45
2017-12-30T01:34:10.127Z,954.49
2017-12-30T01:35:10.065Z,954.47
2017-12-30T01:36:10.000Z,954.49
2017-12-30T01:37:09.936Z,954.51
2017-12-30T01:38:09.872Z,954.52
2017-12-30T01:39:09.806Z,954.56
2017-12-30T01:40:09.743Z,954.56
2017-12-30T01:41:09.682Z,954.55
2017-12-30T01:42:09.616Z,954.59
2017-12-30T01:43:09.550Z,954.57
2017-12-30T01:44:09.486Z,954.56
2017-12-30T01:45:09.422Z,954.55
2017-12-30T01:46:09.357Z,954.60
2017-12-30T01:47:09.296Z,954.60
2017-12-30T01:48:09.230Z,954.58
2017-12-30T01:49:09.166Z,954.55
2017-12-30T01:50:09.101Z,954.52
2017-12-30T01:51:09.038Z,954.47
2017-12-30T01:52:08.976Z,954.45
2017-12-30T01:53:08.909Z,954.45
2017-12-30T01:54:08.844Z,954.40
2017-12-30T01:55:08.787Z,954.35
2017-12-30T01:56:08.716Z,954.37
2017-12-30T01:57:08.653Z,954.32
2017-12-30T01:58:08.588Z,954.24
2017-12-30T01:59:08.528Z,954.23
2017-12-30T02:00:08.459Z,954.24
2017-12-30T02:01:08.397Z,954.28
2017-12-30T02:02:08.335Z,954.25
2017-12-30T02:03:08.268Z,954.23
2017-12-30T02:04:08.203Z,954.21
2017-12-30T02:05:08.144Z,954.20
2017-12-30T02:06:08.074Z,954.21
2017-12-30T02:07:08.013Z,954.16
2017-12-30T02:08:07.950Z,954.11
2017-12-30T02:09:07.897Z,954.12
2017-12-30T02:10:07.823Z,954.15
2017-12-30T02:11:07.758Z,954.14
2017-12-30T02:12:07.692Z,954.13
2017-12-30T02:13:07.628Z,954.10
2017-12-30T02:14:07.566Z,954.08
2017-12-30T02:15:07.498Z,954.06
2017-12-30T02:16:07.435Z,954.07
2017-12-30T02:17:07.376Z,954.02
2017-12-30T02:18:07.306Z,953.98
2017-12-30T02:19:07.244Z,954.00
2017-12-30T02:20:07.182Z,953.96
2017-12-30T02:21:07.118Z,953.97
2017-12-30T02:22:07.050Z,953.91
2017-12-30T02:23:06.988Z,953.89
2017-12-30T02:24:06.950Z,953.89
2017-12-30T02:25:06.864Z,953.88
2017-12-30T02:26:06.796Z,953.87
2017-12-30T02:27:06.738Z,953.79
2017-12-30T02:28:06.668Z,953.79
2017-12-30T02:29:06.598Z,953.80
2017-12-30T02:30:06.541Z,953.86
2017-12-30T02:31:06.476Z,953.84
2017-12-30T02:32:06.413Z,953.80
2017-12-30T02:33:06.347Z,953.77
2017-12-30T02:34:06.285Z,953.72
2017-12-30T02:35:06.222Z,953.68
2017-12-30T02:36:06.157Z,953.64
2017-12-30T02:37:06.097Z,953.68
2017-12-30T02:38:06.024Z,953.63
2017-12-30T02:39:05.962Z,953.57
2017-12-30T02:40:05.902Z,953.59
2017-12-30T02:41:05.838Z,953.54
2017-12-30T02:42:05.777Z,953.49
2017-12-30T02:43:05.708Z,953.51
2017-12-30T02:44:05.645Z,953.54
2017-12-30T02:45:05.581Z,953.54
2017-12-30T02:46:05.517Z,953.54
2017-12-30T02:47:05.455Z,953.57
2017-12-30T02:48:05.386Z,953.56
2017-12-30T02:49:05.326Z,953.51
2017-12-30T02:50:05.264Z,953.53
2017-12-30T02:51:05.196Z,953.51
2017-12-30T02:52:05.131Z,953.47
2017-12-30T02:53:05.067Z,953.50
2017-12-30T02:54:05.002Z,953.45
2017-12-30T02:55:04.941Z,953.45
2017-12-30T02:56:04.877Z,953.43
2017-12-30T02:57:04.815Z,953.47
2017-12-30T02:58:04.750Z,953.42
2017-12-30T02:59:04.674Z,953.37
2017-12-30T03:00:04.620Z,953.35
2017-12-30T03:01:04.558Z,953.35
2017-12-30T03:02:04.497Z,953.37
2017-12-30T03:03:04.428Z,953.30
2017-12-30T03:04:04.369Z,953.27
2017-12-30T03:05:04.298Z,953.24
2017-12-30T03:06:04.237Z,953.31
2017-12-30T03:07:04.173Z,953.30
2017-12-30T03:08:04.108Z,953.30
2017-12-30T03:09:04.047Z,953.34
2017-12-30T03:10:03.985Z,953.28
2017-12-30T03:11:03.917Z,953.29
2017-12-30T03:12:03.854Z,953.32
2017-12-30T03:13:03.792Z,953.34
2017-12-30T03:14:03.725Z,953.28
2017-12-30T03:15:03.659Z,953.35
2017-12-30T03:16:03.597Z,953.33
2017-12-30T03:17:03.533Z,953.32
2017-12-30T03:18:03.467Z,953.41
2017-12-30T03:19:03.404Z,953.37
2017-12-30T03:20:03.344Z,953.36
2017-12-30T03:21:03.278Z,953.38
2017-12-30T03:22:03.210Z,953.39
2017-12-30T03:23:03.149Z,953.39
2017-12-30T03:24:03.087Z,953.40
2017-12-30T03:25:03.026Z,953.43
2017-12-30T03:26:02.963Z,953.37
2017-12-30T03:27:02.895Z,953.36
2017-12-30T03:28:02.833Z,953.41
2017-12-30T03:29:02.769Z,953.44
2017-12-30T03:30:02.708Z,953.50
2017-12-30T03:31:02.649Z,953.49
2017-12-30T03:32:02.575Z,953.51
2017-12-30T03:33:02.512Z,953.49
2017-12-30T03:34:02.445Z,953.51
2017-12-30T03:35:02.384Z,953.45
2017-12-30T03:36:02.331Z,953.51
2017-12-30T03:37:02.260Z,953.48
2017-12-30T03:38:02.192Z,953.45
2017-12-30T03:39:02.126Z,953.44
2017-12-30T03:40:02.063Z,953.46
2017-12-30T03:41:02.007Z,953.40
2017-12-30T03:42:01.936Z,953.42
2017-12-30T03:43:01.877Z,953.42
2017-12-30T03:44:01.818Z,953.40
2017-12-30T03:45:02.402Z,953.39
2017-12-30T03:46:01.679Z,953.35
2017-12-30T03:47:01.616Z,953.34
2017-12-30T03:48:01.551Z,953.34
2017-12-30T03:49:01.487Z,953.36
2017-12-30T03:50:01.423Z,953.29
2017-12-30T03:51:01.361Z,953.33
2017-12-30T03:52:01.295Z,953.31
2017-12-30T03:53:01.234Z,953.31
2017-12-30T03:54:01.167Z,953.32
2017-12-30T03:55:01.109Z,953.33
2017-12-30T03:56:01.041Z,953.33
2017-12-30T03:57:00.980Z,953.33
2017-12-30T03:58:00.912Z,953.28
2017-12-30T03:59:00.848Z,953.32
2017-12-30T04:00:00.789Z,953.29
2017-12-30T04:01:00.720Z,953.31
2017-12-30T04:02:00.673Z,953.32
2017-12-30T04:03:00.595Z,953.33
2017-12-30T04:04:00.533Z,953.28
2017-12-30T04:05:00.467Z,953.32
2017-12-30T04:06:00.402Z,953.31
2017-12-30T04:07:00.345Z,953.31
2017-12-30T04:08:00.279Z,953.31
2017-12-30T04:09:00.211Z,953.33
2017-12-30T04:10:00.149Z,953.30
2017-12-30T04:11:00.088Z,953.28
2017-12-30T04:12:00.031Z,953.30
2017-12-30T04:12:59.956Z,953.33
2017-12-30T04:13:59.893Z,953.29
2017-12-30T04:14:59.828Z,953.28
2017-12-30T04:15:59.763Z,953.31
2017-12-30T04:16:59.701Z,953.28
2017-12-30T04:17:59.637Z,953.26
2017-12-30T04:18:59.581Z,953.25
2017-12-30T04:19:59.510Z,953.24
2017-12-30T04:20:59.446Z,953.21
2017-12-30T04:21:59.383Z,953.23
2017-12-30T04:22:59.328Z,953.22
2017-12-30T04:23:59.256Z,953.20
2017-12-30T04:24:59.191Z,953.16
2017-12-30T04:25:59.128Z,953.15
2017-12-30T04:26:59.065Z,953.13
2017-12-30T04:27:59.001Z,953.06
2017-12-30T04:28:58.938Z,953.07
2017-12-30T04:29:58.872Z,953.06
2017-12-30T04:30:58.808Z,953.02
2017-12-30T04:31:58.747Z,953.00
2017-12-30T04:32:58.686Z,952.92
2017-12-30T04:33:58.617Z,952.85
2017-12-30T04:34:58.555Z,952.82
2017-12-30T04:35:58.491Z,952.78
2017-12-30T04:36:58.427Z,952.70
2017-12-30T04:37:58.371Z,952.74
2017-12-30T04:38:58.292Z,952.76
2017-12-30T04:39:58.235Z,952.73
2017-12-30T04:40:58.172Z,952.73
2017-12-30T04:41:58.108Z,952.66
2017-12-30T04:42:58.044Z,952.64
2017-12-30T04:43:57.981Z,952.71
2017-12-30T04:44:57.921Z,952.72
2017-12-30T04:45:57.854Z,952.76
2017-12-30T04:46:57.801Z,952.74
2017-12-30T04:47:57.725Z,952.72
2017-12-30T04:48:57.662Z,952.71
2017-12-30T04:49:57.595Z,952.68
2017-12-30T04:50:57.562Z,952.74
2017-12-30T04:51:57.470Z,952.73
2017-12-30T04:52:57.408Z,952.87
2017-12-30T04:53:57.339Z,952.85
2017-12-30T04:54:57.276Z,952.85
2017-12-30T04:55:57.215Z,952.91
2017-12-30T04:56:57.151Z,952.90
2017-12-30T04:57:57.087Z,952.81
2017-12-30T04:58:57.027Z,952.91
2017-12-30T04:59:56.959Z,952.93
2017-12-30T05:00:56.895Z,952.87
2017-12-30T05:01:56.832Z,952.91
2017-12-30T05:02:56.768Z,952.90
2017-12-30T05:03:56.702Z,952.88
2017-12-30T05:04:56.641Z,952.88
2017-12-30T05:05:56.575Z,952.87
2017-12-30T05:06:56.512Z,952.84
2017-12-30T05:07:56.448Z,952.83
2017-12-30T05:08:56.385Z,952.86
2017-12-30T05:09:56.319Z,952.82
2017-12-30T05:10:56.256Z,952.85
2017-12-30T05:11:56.192Z,952.87
2017-12-30T05:12:56.161Z,952.83
2017-12-30T05:13:56.064Z,952.83
2017-12-30T05:14:56.006Z,952.85
2017-12-30T05:15:55.937Z,952.85
2017-12-30T05:16:55.874Z,952.82
2017-12-30T05:17:55.814Z,952.84
2017-12-30T05:18:55.745Z,952.85
2017-12-30T05:19:55.682Z,952.82
2017-12-30T05:20:55.618Z,952.84
2017-12-30T05:21:55.556Z,952.85
2017-12-30T05:22:55.480Z,952.82
2017-12-30T05:23:55.425Z,952.77
2017-12-30T05:24:55.363Z,952.80
2017-12-30T05:25:55.298Z,952.79
2017-12-30T05:26:55.235Z,952.76
2017-12-30T05:27:55.172Z,952.77
2017-12-30T05:28:55.106Z,952.68
2017-12-30T05:29:55.040Z,952.69
2017-12-30T05:30:54.979Z,952.68
2017-12-30T05:31:54.917Z,952.67
2017-12-30T05:32:54.854Z,952.70
2017-12-30T05:33:54.787Z,952.71
2017-12-30T05:34:54.726Z,952.73
2017-12-30T05:35:54.661Z,952.73
2017-12-30T05:36:54.598Z,952.71
2017-12-30T05:37:54.530Z,952.66
2017-12-30T05:38:54.470Z,952.65
2017-12-30T05:39:54.404Z,952.66
2017-12-30T05:40:54.335Z,952.65
2017-12-30T05:41:54.276Z,952.59
2017-12-30T05:42:54.213Z,952.59
2017-12-30T05:43:54.149Z,952.57
2017-12-30T05:44:54.085Z,952.56
2017-12-30T05:45:54.020Z,952.58
2017-12-30T05:46:53.957Z,952.57
2017-12-30T05:47:53.894Z,952.60
2017-12-30T05:48:53.830Z,952.58
2017-12-30T05:49:53.765Z,952.60
2017-12-30T05:50:53.700Z,952.58
2017-12-30T05:51:53.639Z,952.57
2017-12-30T05:52:53.567Z,952.57
2017-12-30T05:53:53.516Z,952.56
2017-12-30T05:54:53.446Z,952.55
2017-12-30T05:55:53.382Z,952.50
2017-12-30T05:56:53.318Z,952.45
2017-12-30T05:57:53.258Z,952.31
2017-12-30T05:58:53.189Z,952.28
2017-12-30T05:59:53.131Z,952.26
2017-12-30T06:00:53.066Z,952.29
2017-12-30T06:01:52.998Z,952.39
2017-12-30T06:02:52.935Z,952.41
2017-12-30T06:03:52.870Z,952.45
2017-12-30T06:04:52.806Z,952.43
2017-12-30T06:05:52.744Z,952.37
2017-12-30T06:06:52.680Z,952.35
2017-12-30T06:07:52.615Z,952.29
2017-12-30T06:08:52.590Z,952.27
2017-12-30T06:09:52.486Z,952.32
2017-12-30T06:10:52.425Z,952.34
2017-12-30T06:11:52.359Z,952.33
2017-12-30T06:12:52.297Z,952.32
2017-12-30T06:13:52.230Z,952.29
2017-12-30T06:14:52.172Z,952.35
2017-12-30T06:15:52.103Z,952.40
2017-12-30T06:16:52.041Z,952.37
2017-12-30T06:17:51.976Z,952.40
2017-12-30T06:18:51.918Z,952.40
2017-12-30T06:19:51.848Z,952.42
2017-12-30T06:20:51.785Z,952.39
2017-12-30T06:21:51.719Z,952.43
2017-12-30T06:22:51.655Z,952.44
2017-12-30T06:23:51.592Z,952.51
2017-12-30T06:24:51.530Z,952.50
2017-12-30T06:25:51.463Z,952.51
2017-12-30T06:26:51.398Z,952.52
2017-12-30T06:27:51.336Z,952.48
2017-12-30T06:28:51.274Z,952.45
2017-12-30T06:29:51.208Z,952.41
2017-12-30T06:30:51.144Z,952.39
2017-12-30T06:31:51.080Z,952.45
2017-12-30T06:32:51.016Z,952.47
2017-12-30T06:33:50.951Z,952.48
2017-12-30T06:34:50.890Z,952.45
2017-12-30T06:35:50.826Z,952.42
2017-12-30T06:36:50.760Z,952.48
2017-12-30T06:37:50.697Z,952.41
2017-12-30T06:38:50.635Z,952.47
2017-12-30T06:39:50.567Z,952.44
2017-12-30T06:40:50.506Z,952.39
2017-12-30T06:41:50.445Z,952.34
2017-12-30T06:42:50.376Z,952.32
2017-12-30T06:43:50.315Z,952.28
2017-12-30T06:44:50.249Z,952.20
2017-12-30T06:45:50.185Z,952.15
2017-12-30T06:46:50.119Z,952.19
2017-12-30T06:47:50.057Z,952.21
2017-12-30T06:48:49.993Z,952.20
2017-12-30T06:49:49.931Z,952.17
2017-12-30T06:50:49.865Z,952.17
2017-12-30T06:51:49.802Z,952.18
2017-12-30T06:52:49.740Z,952.11
2017-12-30T06:53:49.675Z,952.13
2017-12-30T06:54:49.612Z,952.23
2017-12-30T06:55:49.548Z,952.29
2017-12-30T06:56:49.490Z,952.25
2017-12-30T06:57:49.419Z,952.29
2017-12-30T06:58:49.354Z,952.27
2017-12-30T06:59:49.289Z,952.25
2017-12-30T07:00:49.225Z,952.24
2017-12-30T07:01:49.161Z,952.19
2017-12-30T07:02:49.096Z,952.28
2017-12-30T07:03:49.068Z,952.22
2017-12-30T07:04:48.974Z,952.28
2017-12-30T07:05:48.908Z,952.28
2017-12-30T07:06:48.845Z,952.32
2017-12-30T07:07:48.788Z,952.26
2017-12-30T07:08:48.732Z,952.30
2017-12-30T07:09:48.652Z,952.23
2017-12-30T07:10:48.588Z,952.22
2017-12-30T07:11:48.525Z,952.21
2017-12-30T07:12:48.456Z,952.21
2017-12-30T07:13:48.396Z,952.16
2017-12-30T07:14:48.332Z,952.14
2017-12-30T07:15:48.268Z,952.04
2017-12-30T07:16:48.204Z,952.02
2017-12-30T07:17:48.146Z,952.05
2017-12-30T07:18:48.075Z,952.06
2017-12-30T07:19:48.009Z,952.00
2017-12-30T07:20:47.946Z,951.97
2017-12-30T07:21:47.892Z,951.98
2017-12-30T07:22:47.817Z,952.05
2017-12-30T07:23:47.753Z,952.06
2017-12-30T07:24:47.690Z,951.98
2017-12-30T07:25:47.636Z,951.93
2017-12-30T07:26:47.568Z,951.90
2017-12-30T07:27:47.506Z,951.92
2017-12-30T07:28:47.454Z,951.92
2017-12-30T07:29:47.370Z,951.94
2017-12-30T07:30:47.315Z,951.96
2017-12-30T07:31:47.244Z,951.97
2017-12-30T07:32:47.178Z,951.97
2017-12-30T07:33:47.147Z,952.02
2017-12-30T07:34:47.049Z,952.05
2017-12-30T07:35:46.985Z,951.99
2017-12-30T07:36:46.947Z,952.01
2017-12-30T07:37:46.862Z,951.94
2017-12-30T07:38:46.793Z,951.91
2017-12-30T07:39:46.736Z,951.86
2017-12-30T07:40:46.666Z,951.81
2017-12-30T07:41:46.601Z,951.74
2017-12-30T07:42:46.532Z,951.61
2017-12-30T07:43:46.491Z,951.54
2017-12-30T07:44:46.412Z,951.54
2017-12-30T07:45:46.346Z,951.46
2017-12-30T07:46:46.284Z,951.44
2017-12-30T07:47:46.223Z,951.45
2017-12-30T07:48:46.157Z,951.51
2017-12-30T07:49:46.090Z,951.55
2017-12-30T07:50:46.043Z,951.46
2017-12-30T07:51:45.972Z,951.48
2017-12-30T07:52:45.913Z,951.49
2017-12-30T07:53:45.835Z,951.54
2017-12-30T07:54:45.774Z,951.59
2017-12-30T07:55:45.705Z,951.53
2017-12-30T07:56:45.642Z,951.58
2017-12-30T07:57:45.578Z,951.56
2017-12-30T07:58:45.515Z,951.53
2017-12-30T07:59:45.451Z,951.52
2017-12-30T08:00:45.387Z,951.58
2017-12-30T08:01:45.321Z,951.65
2017-12-30T08:02:45.257Z,951.65
2017-12-30T08:03:45.214Z,951.73
2017-12-30T08:04:45.145Z,951.75
2017-12-30T08:05:45.066Z,951.75
2017-12-30T08:06:45.008Z,951.81
2017-12-30T08:07:44.944Z,951.77
2017-12-30T08:08:44.878Z,951.74
2017-12-30T08:09:44.814Z,951.79
2017-12-30T08:10:44.746Z,951.70
2017-12-30T08:11:44.684Z,951.63
2017-12-30T08:12:44.625Z,951.71
2017-12-30T08:13:44.562Z,951.71
2017-12-30T08:14:44.496Z,951.73
2017-12-30T08:15:44.450Z,951.72
2017-12-30T08:16:44.369Z,951.69
2017-12-30T08:17:44.295Z,951.67
2017-12-30T08:18:44.237Z,951.66
2017-12-30T08:19:44.172Z,951.69
2017-12-30T08:20:44.113Z,951.69
2017-12-30T08:21:44.054Z,951.71
2017-12-30T08:22:43.982Z,951.70
2017-12-30T08:23:43.917Z,951.72
2017-12-30T08:24:43.854Z,951.79
2017-12-30T08:25:43.795Z,951.81
2017-12-30T08:26:43.741Z,951.81
2017-12-30T08:27:43.660Z,951.86
2017-12-30T08:28:43.601Z,951.88
2017-12-30T08:29:43.534Z,951.86
2017-12-30T08:30:43.467Z,951.91
2017-12-30T08:31:43.405Z,951.87
2017-12-30T08:32:43.344Z,951.90
2017-12-30T08:33:43.291Z,951.90
2017-12-30T08:34:43.215Z,951.85
2017-12-30T08:35:43.149Z,951.83
2017-12-30T08:36:43.103Z,951.86
2017-12-30T08:37:43.021Z,951.86
2017-12-30T08:38:42.958Z,951.86
2017-12-30T08:39:42.904Z,951.96
2017-12-30T08:40:42.833Z,951.92
2017-12-30T08:41:42.776Z,951.91
2017-12-30T08:42:42.701Z,951.99
2017-12-30T08:43:42.658Z,951.98
2017-12-30T08:44:42.578Z,951.96
2017-12-30T08:45:42.514Z,951.99
2017-12-30T08:46:42.462Z,951.97
2017-12-30T08:47:42.385Z,951.88
2017-12-30T08:48:42.329Z,951.85
2017-12-30T08:49:42.259Z,951.84
2017-12-30T08:50:42.193Z,951.82
2017-12-30T08:51:42.127Z,951.81
2017-12-30T08:52:42.067Z,951.82
2017-12-30T08:53:42.000Z,951.79
2017-12-30T08:54:41.936Z,951.83
2017-12-30T08:55:41.874Z,951.78
2017-12-30T08:56:41.812Z,951.82
2017-12-30T08:57:41.748Z,951.77
2017-12-30T08:58:41.689Z,951.84
2017-12-30T08:59:41.624Z,951.80
2017-12-30T09:00:41.556Z,951.79
2017-12-30T09:01:41.491Z,951.83
2017-12-30T09:02:41.428Z,951.90
2017-12-30T09:03:41.372Z,951.92
2017-12-30T09:04:41.293Z,951.91
2017-12-30T09:05:41.241Z,951.91
2017-12-30T09:06:41.180Z,951.95
2017-12-30T09:07:41.107Z,951.92
2017-12-30T09:08:41.048Z,951.87
2017-12-30T09:09:40.995Z,951.90
2017-12-30T09:10:40.930Z,951.90
2017-12-30T09:11:40.856Z,951.99
2017-12-30T09:12:40.792Z,951.96
2017-12-30T09:13:40.726Z,951.94
2017-12-30T09:14:40.664Z,951.93
2017-12-30T09:15:40.601Z,951.93
2017-12-30T09:16:40.547Z,952.02
2017-12-30T09:17:40.471Z,951.99
2017-12-30T09:18:40.409Z,951.97
2017-12-30T09:19:40.345Z,951.98
2017-12-30T09:20:40.287Z,952.08
2017-12-30T09:21:40.218Z,951.98
2017-12-30T09:22:40.164Z,952.01
2017-12-30T09:23:40.093Z,951.97
2017-12-30T09:24:40.031Z,951.89
2017-12-30T09:25:39.968Z,951.89
2017-12-30T09:26:39.903Z,951.87
2017-12-30T09:27:39.842Z,951.85
2017-12-30T09:28:39.774Z,951.79
2017-12-30T09:29:39.713Z,951.78
2017-12-30T09:30:39.648Z,951.86
2017-12-30T09:31:39.583Z,951.87
2017-12-30T09:32:39.520Z,951.78
2017-12-30T09:33:39.463Z,951.81
2017-12-30T09:34:39.392Z,951.74
2017-12-30T09:35:39.330Z,951.74
2017-12-30T09:36:39.281Z,951.86
2017-12-30T09:37:39.225Z,951.90
2017-12-30T09:38:39.143Z,951.98
2017-12-30T09:39:39.076Z,951.93
2017-12-30T09:40:39.012Z,951.93
2017-12-30T09:41:38.951Z,951.95
2017-12-30T09:42:38.886Z,951.96
2017-12-30T09:43:38.821Z,951.96
2017-12-30T09:44:38.763Z,951.97
2017-12-30T09:45:38.694Z,951.88
2017-12-30T09:46:38.633Z,951.86
2017-12-30T09:47:38.571Z,951.87
2017-12-30T09:48:38.505Z,951.94
2017-12-30T09:49:38.443Z,951.93
2017-12-30T09:50:38.378Z,951.88
2017-12-30T09:51:38.317Z,951.84
2017-12-30T09:52:38.253Z,951.84
2017-12-30T09:53:38.186Z,951.82
2017-12-30T09:54:38.124Z,951.93
2017-12-30T09:55:38.065Z,951.94
2017-12-30T09:56:37.997Z,952.01
2017-12-30T09:57:37.935Z,951.97
2017-12-30T09:58:37.878Z,952.02
2017-12-30T09:59:37.808Z,952.01
2017-12-30T10:00:37.748Z,951.98
2017-12-30T10:01:37.682Z,951.95
2017-12-30T10:02:37.619Z,952.02
2017-12-30T10:03:37.556Z,952.12
2017-12-30T10:04:37.496Z,952.01
2017-12-30T10:05:37.427Z,952.03
2017-12-30T10:06:37.364Z,952.17
2017-12-30T10:07:37.305Z,952.20
2017-12-30T10:08:37.239Z,952.20
2017-12-30T10:09:37.179Z,952.22
2017-12-30T10:10:37.112Z,952.24
2017-12-30T10:11:37.056Z,952.21
2017-12-30T10:12:36.994Z,952.13
2017-12-30T10:13:36.920Z,952.11
2017-12-30T10:14:36.860Z,952.06
2017-12-30T10:15:36.794Z,952.06
2017-12-30T10:16:36.734Z,952.15
2017-12-30T10:17:36.699Z,952.17
2017-12-30T10:18:36.606Z,952.24
2017-12-30T10:19:36.543Z,952.23
2017-12-30T10:20:36.480Z,952.11
2017-12-30T10:21:36.416Z,952.05
2017-12-30T10:22:36.352Z,952.01
2017-12-30T10:23:36.290Z,952.02
2017-12-30T10:24:36.228Z,952.04
2017-12-30T10:25:36.163Z,952.09
2017-12-30T10:26:36.099Z,952.07
2017-12-30T10:27:36.037Z,952.03
2017-12-30T10:28:35.975Z,952.09
2017-12-30T10:29:35.910Z,952.06
2017-12-30T10:30:35.861Z,951.97
2017-12-30T10:31:35.785Z,951.87
2017-12-30T10:32:35.727Z,951.88
2017-12-30T10:33:35.661Z,951.95
2017-12-30T10:34:35.593Z,951.91
2017-12-30T10:35:35.533Z,951.90
2017-12-30T10:36:35.470Z,951.84
2017-12-30T10:37:35.407Z,951.83
2017-12-30T10:38:35.343Z,951.89
2017-12-30T10:39:35.280Z,951.82
2017-12-30T10:40:35.218Z,951.73
2017-12-30T10:41:35.155Z,951.82
2017-12-30T10:42:35.092Z,951.77
2017-12-30T10:43:35.027Z,951.73
2017-12-30T10:44:34.965Z,951.73
2017-12-30T10:45:34.900Z,951.78
2017-12-30T10:46:34.838Z,951.89
2017-12-30T10:47:34.775Z,951.80
2017-12-30T10:48:34.714Z,951.90
2017-12-30T10:49:34.650Z,951.80
2017-12-30T10:50:34.588Z,951.83
2017-12-30T10:51:34.524Z,951.77
2017-12-30T10:52:34.460Z,951.73
2017-12-30T10:53:34.398Z,951.81
2017-12-30T10:54:34.335Z,951.81
2017-12-30T10:55:34.276Z,951.88
2017-12-30T10:56:34.211Z,951.85
2017-12-30T10:57:34.147Z,951.82
2017-12-30T10:58:34.083Z,951.78
2017-12-30T10:59:34.019Z,951.76
2017-12-30T11:00:33.966Z,951.78
2017-12-30T11:01:33.895Z,951.66
2017-12-30T11:02:33.833Z,951.78
2017-12-30T11:03:33.770Z,951.80
2017-12-30T11:04:33.711Z,951.76
2017-12-30T11:05:33.647Z,951.77
2017-12-30T11:06:33.585Z,951.76
2017-12-30T11:07:33.519Z,951.84
2017-12-30T11:08:33.465Z,951.81
2017-12-30T11:09:33.392Z,951.71
2017-12-30T11:10:33.335Z,951.69
2017-12-30T11:11:33.267Z,951.60
2017-12-30T11:12:33.207Z,951.63
2017-12-30T11:13:33.139Z,951.68
2017-12-30T11:14:33.083Z,951.58
2017-12-30T11:15:33.017Z,951.67
2017-12-30T11:16:32.953Z,951.63
2017-12-30T11:17:32.891Z,951.64
2017-12-30T11:18:32.832Z,951.58
2017-12-30T11:19:32.768Z,951.68
2017-12-30T11:20:32.703Z,951.60
2017-12-30T11:21:32.639Z,951.53
2017-12-30T11:22:32.576Z,951.60
2017-12-30T11:23:32.521Z,951.66
2017-12-30T11:24:32.453Z,951.72
2017-12-30T11:25:32.389Z,951.65
2017-12-30T11:26:32.336Z,951.83
2017-12-30T11:27:32.270Z,951.82
2017-12-30T11:28:32.203Z,951.85
2017-12-30T11:29:32.140Z,951.86
2017-12-30T11:30:32.083Z,951.80
2017-12-30T11:31:32.018Z,951.87
2017-12-30T11:32:31.953Z,951.82
2017-12-30T11:33:31.892Z,951.78
2017-12-30T11:34:31.830Z,951.84
2017-12-30T11:35:31.767Z,951.84
2017-12-30T11:36:31.704Z,951.99
2017-12-30T11:37:31.642Z,951.99
2017-12-30T11:38:31.575Z,951.89
2017-12-30T11:39:31.515Z,951.90
2017-12-30T11:40:31.457Z,951.86
2017-12-30T11:41:31.390Z,951.78
2017-12-30T11:42:31.331Z,951.81
2017-12-30T11:43:31.267Z,951.87
2017-12-30T11:44:31.205Z,951.88
2017-12-30T11:45:31.140Z,951.85
2017-12-30T11:46:31.078Z,951.88
2017-12-30T11:47:31.017Z,951.83
2017-12-30T11:48:30.953Z,951.89
2017-12-30T11:49:30.892Z,951.91
2017-12-30T11:50:30.829Z,951.92
2017-12-30T11:51:30.767Z,951.96
2017-12-30T11:52:30.704Z,951.89
2017-12-30T11:53:30.643Z,951.89
2017-12-30T11:54:30.582Z,951.96
2017-12-30T11:55:30.519Z,951.92
2017-12-30T11:56:30.457Z,951.89
2017-12-30T11:57:30.393Z,951.87
2017-12-30T11:58:30.332Z,951.90
2017-12-30T11:59:30.268Z,951.93
2017-12-30T12:00:30.207Z,951.99
2017-12-30T12:01:30.145Z,952.01
2017-12-30T12:02:30.082Z,951.99
2017-12-30T12:03:30.023Z,951.90
2017-12-30T12:04:29.960Z,951.96
2017-12-30T12:05:29.897Z,951.88
2017-12-30T12:06:29.841Z,951.97
2017-12-30T12:07:29.774Z,951.99
2017-12-30T12:08:29.715Z,951.95
2017-12-30T12:09:29.647Z,951.94
2017-12-30T12:10:29.588Z,951.95
2017-12-30T12:11:29.529Z,951.75
2017-12-30T12:12:29.465Z,951.80
2017-12-30T12:13:29.401Z,951.81
2017-12-30T12:14:29.337Z,951.77
2017-12-30T12:15:29.276Z,951.77
2017-12-30T12:16:29.215Z,951.77
2017-12-30T12:17:29.155Z,951.71
2017-12-30T12:18:29.093Z,951.78
2017-12-30T12:19:29.033Z,951.83
2017-12-30T12:20:28.968Z,951.68
2017-12-30T12:21:28.905Z,951.85
2017-12-30T12:22:28.844Z,951.78
2017-12-30T12:23:28.784Z,951.85
2017-12-30T12:24:28.722Z,951.81
2017-12-30T12:25:28.661Z,951.84
2017-12-30T12:26:28.598Z,951.80
2017-12-30T12:27:28.534Z,951.81